Morning Clara — 9V7564 — position and weather

sailwx.info

Track history (hours):
 
Tides and Currents Weather Stations Pressure Air Temp Water Temp Dewpoint Dewpoint Depression Visibility Wind Speed Wind Dir Waves Ship Positions

Morning Clara

Last reported at 2016-May-30 15:33 UTC. Time now 2016-May-30 16:26 UTC.
Position N 24°33' E 118°05'.

Length 200 m; draft 8.4 m.

Type: Cargo ship. MMSI: 564254000.

Date/timePositionNaut miles runAvg speedWind from/ knotsBaromVisibWave heightAir tempDewpointWater temp
2016-May-30 15:33N 24°33' E 118°05'0 0.0
2016-May-30 14:33N 24°33' E 118°05'0 0.0
2016-May-30 13:33N 24°33' E 118°05'0 0.0
2016-May-30 12:33N 24°33' E 118°05'0 0.0
2016-May-30 11:27N 24°33' E 118°05'3 3.1
2016-May-30 10:33N 24°30' E 118°04'9 8.7
2016-May-30 09:33N 24°22' E 118°08'10 9.8
2016-May-30 08:33N 24°15' E 118°15'9 8.5
2016-May-30 07:31N 24°07' E 118°19'9 9.5
2016-May-30 06:33N 23°58' E 118°17'1514.7
2016-May-30 05:31N 23°45' E 118°09'  
2016-May-24 02:33N 01°14' E 104°03'1413.7
2016-May-24 01:32N 01°12' E 103°49'6 5.9
2016-May-24 00:28N 01°17' E 103°45'0 0.0
2016-May-23 23:31N 01°17' E 103°45'0 0.0
2016-May-23 22:22N 01°17' E 103°45'0 0.0
2016-May-23 21:31N 01°17' E 103°45'0 0.0
2016-May-23 20:31N 01°17' E 103°45'0 0.0
2016-May-23 19:28N 01°17' E 103°45'0 0.0
2016-May-23 18:28N 01°17' E 103°45'0 0.0
2016-May-23 17:28N 01°17' E 103°45'0 0.0
2016-May-23 16:31N 01°17' E 103°45'0 0.0
2016-May-23 15:28N 01°17' E 103°45'0 0.0
2016-May-23 14:28N 01°17' E 103°45'0 0.5
2016-May-23 13:33N 01°17' E 103°45'6 5.8
2016-May-23 12:33N 01°13' E 103°41'8110.1
2016-May-23 04:31N 01°48' E 102°28'  
Track history (hours):
 
Tides and Currents Weather Stations Pressure Air Temp Water Temp Dewpoint Dewpoint Depression Visibility Wind Speed Wind Dir Waves Ship Positions

Morning Clara

Last reported at 2016-May-30 15:33 UTC. Time now 2016-May-30 16:26 UTC.
Position N 24°33' E 118°05'.

Length 200 m; draft 8.4 m.

Type: Cargo ship. MMSI: 564254000.

Date/timePositionNaut miles runAvg speedWind from/ knotsBaromVisibWave heightAir tempDewpointWater temp
2016-May-30 15:33N 24°33' E 118°05'0 0.0
2016-May-30 14:33N 24°33' E 118°05'0 0.0
2016-May-30 13:33N 24°33' E 118°05'0 0.0
2016-May-30 12:33N 24°33' E 118°05'0 0.0
2016-May-30 11:27N 24°33' E 118°05'3 3.1
2016-May-30 10:33N 24°30' E 118°04'9 8.7
2016-May-30 09:33N 24°22' E 118°08'10 9.8
2016-May-30 08:33N 24°15' E 118°15'9 8.5
2016-May-30 07:31N 24°07' E 118°19'9 9.5
2016-May-30 06:33N 23°58' E 118°17'1514.7
2016-May-30 05:31N 23°45' E 118°09'  
2016-May-24 02:33N 01°14' E 104°03'1413.7
2016-May-24 01:32N 01°12' E 103°49'6 5.9
2016-May-24 00:28N 01°17' E 103°45'0 0.0
2016-May-23 23:31N 01°17' E 103°45'0 0.0
2016-May-23 22:22N 01°17' E 103°45'0 0.0
2016-May-23 21:31N 01°17' E 103°45'0 0.0
2016-May-23 20:31N 01°17' E 103°45'0 0.0
2016-May-23 19:28N 01°17' E 103°45'0 0.0
2016-May-23 18:28N 01°17' E 103°45'0 0.0
2016-May-23 17:28N 01°17' E 103°45'0 0.0
2016-May-23 16:31N 01°17' E 103°45'0 0.0
2016-May-23 15:28N 01°17' E 103°45'0 0.0
2016-May-23 14:28N 01°17' E 103°45'0 0.5
2016-May-23 13:33N 01°17' E 103°45'6 5.8
2016-May-23 12:33N 01°13' E 103°41'8110.1
2016-May-23 04:31N 01°48' E 102°28'  

Dump ship's entire track history